sensor_id;sensor_type;location;lat;lon;timestamp;P1;durP1;ratioP1;P2;durP2;ratioP2
7021;SDS011;3552;42.664;23.406;2022-08-25T00:02:01;23.50;;;9.27;;
7021;SDS011;3552;42.664;23.406;2022-08-25T00:04:30;28.00;;;10.13;;
7021;SDS011;3552;42.664;23.406;2022-08-25T00:07:00;22.37;;;9.17;;
7021;SDS011;3552;42.664;23.406;2022-08-25T00:09:28;26.93;;;9.13;;
7021;SDS011;3552;42.664;23.406;2022-08-25T00:11:56;20.93;;;9.00;;
7021;SDS011;3552;42.664;23.406;2022-08-25T00:14:27;18.67;;;8.70;;
7021;SDS011;3552;42.664;23.406;2022-08-25T00:16:57;24.83;;;9.30;;
7021;SDS011;3552;42.664;23.406;2022-08-25T00:19:26;24.83;;;8.93;;
7021;SDS011;3552;42.664;23.406;2022-08-25T00:21:56;26.03;;;9.37;;
7021;SDS011;3552;42.664;23.406;2022-08-25T00:24:24;22.90;;;10.10;;
7021;SDS011;3552;42.664;23.406;2022-08-25T00:26:52;20.80;;;8.87;;
7021;SDS011;3552;42.664;23.406;2022-08-25T00:29:27;23.53;;;9.40;;
7021;SDS011;3552;42.664;23.406;2022-08-25T00:31:55;21.67;;;9.33;;
7021;SDS011;3552;42.664;23.406;2022-08-25T00:34:24;22.33;;;9.70;;
7021;SDS011;3552;42.664;23.406;2022-08-25T00:36:53;21.03;;;9.27;;
7021;SDS011;3552;42.664;23.406;2022-08-25T00:39:21;21.90;;;10.17;;
7021;SDS011;3552;42.664;23.406;2022-08-25T00:41:50;22.97;;;10.43;;
7021;SDS011;3552;42.664;23.406;2022-08-25T00:44:18;23.80;;;9.40;;
7021;SDS011;3552;42.664;23.406;2022-08-25T00:46:47;17.57;;;9.30;;
7021;SDS011;3552;42.664;23.406;2022-08-25T00:49:18;19.97;;;8.90;;
7021;SDS011;3552;42.664;23.406;2022-08-25T00:51:49;25.53;;;9.87;;
7021;SDS011;3552;42.664;23.406;2022-08-25T00:54:21;22.50;;;9.87;;
7021;SDS011;3552;42.664;23.406;2022-08-25T00:56:51;26.70;;;10.13;;
7021;SDS011;3552;42.664;23.406;2022-08-25T00:59:23;31.47;;;9.67;;
7021;SDS011;3552;42.664;23.406;2022-08-25T01:01:54;25.17;;;9.97;;
7021;SDS011;3552;42.664;23.406;2022-08-25T01:04:23;22.60;;;9.20;;
7021;SDS011;3552;42.664;23.406;2022-08-25T01:06:51;25.03;;;8.97;;
7021;SDS011;3552;42.664;23.406;2022-08-25T01:09:20;19.57;;;9.97;;
7021;SDS011;3552;42.664;23.406;2022-08-25T01:11:47;27.40;;;9.47;;
7021;SDS011;3552;42.664;23.406;2022-08-25T01:14:16;22.80;;;9.07;;
7021;SDS011;3552;42.664;23.406;2022-08-25T01:16:45;29.13;;;9.33;;
7021;SDS011;3552;42.664;23.406;2022-08-25T01:19:14;25.17;;;9.50;;
7021;SDS011;3552;42.664;23.406;2022-08-25T01:21:44;17.70;;;9.73;;
7021;SDS011;3552;42.664;23.406;2022-08-25T01:24:15;22.67;;;9.77;;
7021;SDS011;3552;42.664;23.406;2022-08-25T01:26:50;18.03;;;8.83;;
7021;SDS011;3552;42.664;23.406;2022-08-25T01:29:18;20.30;;;9.23;;
7021;SDS011;3552;42.664;23.406;2022-08-25T01:31:51;20.80;;;9.60;;
7021;SDS011;3552;42.664;23.406;2022-08-25T01:34:22;29.30;;;9.40;;
7021;SDS011;3552;42.664;23.406;2022-08-25T01:36:52;22.13;;;9.23;;
7021;SDS011;3552;42.664;23.406;2022-08-25T01:39:20;29.23;;;9.93;;
7021;SDS011;3552;42.664;23.406;2022-08-25T01:44:44;24.63;;;9.43;;
7021;SDS011;3552;42.664;23.406;2022-08-25T01:47:14;18.63;;;9.07;;
7021;SDS011;3552;42.664;23.406;2022-08-25T01:49:43;23.37;;;10.07;;
7021;SDS011;3552;42.664;23.406;2022-08-25T01:52:13;19.20;;;8.83;;
7021;SDS011;3552;42.664;23.406;2022-08-25T01:54:42;28.90;;;11.57;;
7021;SDS011;3552;42.664;23.406;2022-08-25T01:57:09;26.33;;;10.23;;
7021;SDS011;3552;42.664;23.406;2022-08-25T01:59:36;20.70;;;9.97;;
7021;SDS011;3552;42.664;23.406;2022-08-25T02:02:04;17.13;;;9.93;;
7021;SDS011;3552;42.664;23.406;2022-08-25T02:04:32;22.90;;;10.17;;
7021;SDS011;3552;42.664;23.406;2022-08-25T02:07:00;23.67;;;10.07;;
7021;SDS011;3552;42.664;23.406;2022-08-25T02:09:32;22.70;;;9.80;;
7021;SDS011;3552;42.664;23.406;2022-08-25T02:12:02;25.60;;;9.43;;
7021;SDS011;3552;42.664;23.406;2022-08-25T02:14:29;26.87;;;10.40;;
7021;SDS011;3552;42.664;23.406;2022-08-25T02:16:57;23.50;;;10.87;;
7021;SDS011;3552;42.664;23.406;2022-08-25T02:19:24;27.83;;;10.80;;
7021;SDS011;3552;42.664;23.406;2022-08-25T02:21:52;21.83;;;9.73;;
7021;SDS011;3552;42.664;23.406;2022-08-25T02:24:20;30.33;;;10.53;;
7021;SDS011;3552;42.664;23.406;2022-08-25T02:26:50;23.33;;;10.13;;
7021;SDS011;3552;42.664;23.406;2022-08-25T02:29:17;24.83;;;10.43;;
7021;SDS011;3552;42.664;23.406;2022-08-25T02:31:44;28.20;;;11.30;;
7021;SDS011;3552;42.664;23.406;2022-08-25T02:34:12;27.90;;;10.30;;
7021;SDS011;3552;42.664;23.406;2022-08-25T02:36:40;33.77;;;10.83;;
7021;SDS011;3552;42.664;23.406;2022-08-25T02:39:08;19.13;;;9.27;;
7021;SDS011;3552;42.664;23.406;2022-08-25T02:41:36;23.47;;;9.67;;
7021;SDS011;3552;42.664;23.406;2022-08-25T02:44:06;31.17;;;9.97;;
7021;SDS011;3552;42.664;23.406;2022-08-25T02:46:33;21.00;;;10.00;;
7021;SDS011;3552;42.664;23.406;2022-08-25T02:49:01;22.53;;;9.83;;
7021;SDS011;3552;42.664;23.406;2022-08-25T02:51:28;29.63;;;10.33;;
7021;SDS011;3552;42.664;23.406;2022-08-25T02:53:56;27.13;;;11.57;;
7021;SDS011;3552;42.664;23.406;2022-08-25T02:56:26;23.57;;;10.07;;
7021;SDS011;3552;42.664;23.406;2022-08-25T02:58:54;25.47;;;9.27;;
7021;SDS011;3552;42.664;23.406;2022-08-25T03:01:24;28.40;;;10.10;;
7021;SDS011;3552;42.664;23.406;2022-08-25T03:03:51;29.63;;;9.40;;
7021;SDS011;3552;42.664;23.406;2022-08-25T03:06:20;25.40;;;9.33;;
7021;SDS011;3552;42.664;23.406;2022-08-25T03:08:48;20.23;;;9.30;;
7021;SDS011;3552;42.664;23.406;2022-08-25T03:11:16;23.10;;;8.60;;
7021;SDS011;3552;42.664;23.406;2022-08-25T03:13:43;26.70;;;9.07;;
7021;SDS011;3552;42.664;23.406;2022-08-25T03:16:10;29.53;;;9.13;;
7021;SDS011;3552;42.664;23.406;2022-08-25T03:18:41;31.73;;;8.90;;
7021;SDS011;3552;42.664;23.406;2022-08-25T03:21:08;25.00;;;8.97;;
7021;SDS011;3552;42.664;23.406;2022-08-25T03:23:37;19.47;;;8.27;;
7021;SDS011;3552;42.664;23.406;2022-08-25T03:26:05;29.73;;;9.03;;
7021;SDS011;3552;42.664;23.406;2022-08-25T03:28:49;22.80;;;9.23;;
7021;SDS011;3552;42.664;23.406;2022-08-25T03:31:16;26.33;;;9.27;;
7021;SDS011;3552;42.664;23.406;2022-08-25T03:33:47;24.33;;;9.00;;
7021;SDS011;3552;42.664;23.406;2022-08-25T03:36:14;24.33;;;8.90;;
7021;SDS011;3552;42.664;23.406;2022-08-25T03:38:42;26.70;;;9.07;;
7021;SDS011;3552;42.664;23.406;2022-08-25T03:41:10;20.73;;;8.87;;
7021;SDS011;3552;42.664;23.406;2022-08-25T03:43:40;21.57;;;8.17;;
7021;SDS011;3552;42.664;23.406;2022-08-25T03:46:07;18.87;;;9.40;;
7021;SDS011;3552;42.664;23.406;2022-08-25T03:48:34;20.23;;;8.50;;
7021;SDS011;3552;42.664;23.406;2022-08-25T03:51:03;23.23;;;9.07;;
7021;SDS011;3552;42.664;23.406;2022-08-25T03:53:30;18.90;;;8.17;;
7021;SDS011;3552;42.664;23.406;2022-08-25T03:55:59;20.37;;;8.63;;
7021;SDS011;3552;42.664;23.406;2022-08-25T03:58:27;17.50;;;9.17;;
7021;SDS011;3552;42.664;23.406;2022-08-25T04:00:54;20.93;;;9.10;;
7021;SDS011;3552;42.664;23.406;2022-08-25T04:03:24;25.67;;;8.30;;
7021;SDS011;3552;42.664;23.406;2022-08-25T04:05:52;23.83;;;8.57;;
7021;SDS011;3552;42.664;23.406;2022-08-25T04:08:21;24.33;;;8.83;;
7021;SDS011;3552;42.664;23.406;2022-08-25T04:10:48;22.20;;;8.23;;
7021;SDS011;3552;42.664;23.406;2022-08-25T04:13:15;18.13;;;8.33;;
7021;SDS011;3552;42.664;23.406;2022-08-25T04:15:42;18.17;;;8.10;;
7021;SDS011;3552;42.664;23.406;2022-08-25T04:18:10;25.60;;;8.80;;
7021;SDS011;3552;42.664;23.406;2022-08-25T04:20:37;17.53;;;7.53;;
7021;SDS011;3552;42.664;23.406;2022-08-25T04:23:06;17.60;;;8.90;;
7021;SDS011;3552;42.664;23.406;2022-08-25T04:25:38;23.90;;;9.57;;
7021;SDS011;3552;42.664;23.406;2022-08-25T04:28:07;26.83;;;10.13;;
7021;SDS011;3552;42.664;23.406;2022-08-25T04:30:35;20.70;;;9.10;;
7021;SDS011;3552;42.664;23.406;2022-08-25T04:33:06;24.73;;;9.30;;
7021;SDS011;3552;42.664;23.406;2022-08-25T04:35:33;24.83;;;9.03;;
7021;SDS011;3552;42.664;23.406;2022-08-25T04:38:01;30.20;;;9.20;;
7021;SDS011;3552;42.664;23.406;2022-08-25T04:40:28;28.77;;;10.37;;
7021;SDS011;3552;42.664;23.406;2022-08-25T04:42:57;25.17;;;9.67;;
7021;SDS011;3552;42.664;23.406;2022-08-25T04:45:24;20.73;;;9.00;;
7021;SDS011;3552;42.664;23.406;2022-08-25T04:47:51;27.63;;;10.17;;
7021;SDS011;3552;42.664;23.406;2022-08-25T04:50:24;28.67;;;10.70;;
7021;SDS011;3552;42.664;23.406;2022-08-25T04:52:51;24.50;;;9.43;;
7021;SDS011;3552;42.664;23.406;2022-08-25T04:55:19;18.13;;;9.20;;
7021;SDS011;3552;42.664;23.406;2022-08-25T04:57:46;31.00;;;10.63;;
7021;SDS011;3552;42.664;23.406;2022-08-25T05:00:17;22.33;;;9.70;;
7021;SDS011;3552;42.664;23.406;2022-08-25T05:02:44;25.90;;;10.63;;
7021;SDS011;3552;42.664;23.406;2022-08-25T05:05:12;21.63;;;10.47;;
7021;SDS011;3552;42.664;23.406;2022-08-25T05:07:40;24.93;;;11.67;;
7021;SDS011;3552;42.664;23.406;2022-08-25T05:10:10;25.77;;;12.07;;
7021;SDS011;3552;42.664;23.406;2022-08-25T05:12:39;24.10;;;10.80;;
7021;SDS011;3552;42.664;23.406;2022-08-25T05:15:06;26.03;;;12.23;;
7021;SDS011;3552;42.664;23.406;2022-08-25T05:17:55;31.60;;;10.83;;
7021;SDS011;3552;42.664;23.406;2022-08-25T05:20:23;25.33;;;10.70;;
7021;SDS011;3552;42.664;23.406;2022-08-25T05:22:52;23.47;;;9.80;;
7021;SDS011;3552;42.664;23.406;2022-08-25T05:25:20;22.90;;;10.90;;
7021;SDS011;3552;42.664;23.406;2022-08-25T05:27:47;25.50;;;10.90;;
7021;SDS011;3552;42.664;23.406;2022-08-25T05:30:16;33.50;;;10.33;;
7021;SDS011;3552;42.664;23.406;2022-08-25T05:32:44;18.73;;;10.30;;
7021;SDS011;3552;42.664;23.406;2022-08-25T05:35:13;22.77;;;9.43;;
7021;SDS011;3552;42.664;23.406;2022-08-25T05:37:40;24.83;;;10.43;;
7021;SDS011;3552;42.664;23.406;2022-08-25T05:40:08;21.93;;;9.83;;
7021;SDS011;3552;42.664;23.406;2022-08-25T05:42:35;26.33;;;8.93;;
7021;SDS011;3552;42.664;23.406;2022-08-25T05:45:03;22.10;;;9.20;;
7021;SDS011;3552;42.664;23.406;2022-08-25T05:47:31;20.90;;;9.63;;
7021;SDS011;3552;42.664;23.406;2022-08-25T05:50:00;19.43;;;9.00;;
7021;SDS011;3552;42.664;23.406;2022-08-25T05:52:28;20.77;;;9.27;;
7021;SDS011;3552;42.664;23.406;2022-08-25T05:54:55;22.97;;;8.63;;
7021;SDS011;3552;42.664;23.406;2022-08-25T05:57:24;26.53;;;9.80;;
7021;SDS011;3552;42.664;23.406;2022-08-25T05:59:51;21.97;;;9.10;;
7021;SDS011;3552;42.664;23.406;2022-08-25T06:02:19;22.03;;;9.07;;
7021;SDS011;3552;42.664;23.406;2022-08-25T06:05:04;21.00;;;8.43;;
7021;SDS011;3552;42.664;23.406;2022-08-25T06:07:33;19.50;;;8.90;;
7021;SDS011;3552;42.664;23.406;2022-08-25T06:10:01;20.60;;;9.07;;
7021;SDS011;3552;42.664;23.406;2022-08-25T06:12:28;24.37;;;8.60;;
7021;SDS011;3552;42.664;23.406;2022-08-25T06:14:57;24.73;;;8.80;;
7021;SDS011;3552;42.664;23.406;2022-08-25T06:17:25;21.17;;;8.63;;
7021;SDS011;3552;42.664;23.406;2022-08-25T06:19:53;20.23;;;8.30;;
7021;SDS011;3552;42.664;23.406;2022-08-25T06:22:22;26.00;;;9.17;;
7021;SDS011;3552;42.664;23.406;2022-08-25T06:24:51;29.30;;;8.83;;
7021;SDS011;3552;42.664;23.406;2022-08-25T06:27:19;20.67;;;8.63;;
7021;SDS011;3552;42.664;23.406;2022-08-25T06:29:47;34.73;;;9.77;;
7021;SDS011;3552;42.664;23.406;2022-08-25T06:32:14;26.50;;;9.43;;
7021;SDS011;3552;42.664;23.406;2022-08-25T06:34:42;20.37;;;8.73;;
7021;SDS011;3552;42.664;23.406;2022-08-25T06:37:09;21.53;;;7.77;;
7021;SDS011;3552;42.664;23.406;2022-08-25T06:39:36;23.03;;;8.90;;
7021;SDS011;3552;42.664;23.406;2022-08-25T06:42:05;27.07;;;9.23;;
7021;SDS011;3552;42.664;23.406;2022-08-25T06:44:32;29.17;;;8.00;;
7021;SDS011;3552;42.664;23.406;2022-08-25T06:47:02;22.23;;;9.30;;
7021;SDS011;3552;42.664;23.406;2022-08-25T06:49:30;17.47;;;7.37;;
7021;SDS011;3552;42.664;23.406;2022-08-25T06:51:57;22.17;;;8.43;;
7021;SDS011;3552;42.664;23.406;2022-08-25T06:54:24;18.47;;;7.77;;
7021;SDS011;3552;42.664;23.406;2022-08-25T06:56:56;28.67;;;8.43;;
7021;SDS011;3552;42.664;23.406;2022-08-25T06:59:28;19.53;;;7.70;;
7021;SDS011;3552;42.664;23.406;2022-08-25T07:01:55;25.33;;;8.93;;
7021;SDS011;3552;42.664;23.406;2022-08-25T07:04:22;15.00;;;6.97;;
7021;SDS011;3552;42.664;23.406;2022-08-25T07:06:49;20.00;;;7.57;;
7021;SDS011;3552;42.664;23.406;2022-08-25T07:09:17;19.03;;;7.20;;
7021;SDS011;3552;42.664;23.406;2022-08-25T07:11:45;23.33;;;8.00;;
7021;SDS011;3552;42.664;23.406;2022-08-25T07:14:13;18.47;;;7.43;;
7021;SDS011;3552;42.664;23.406;2022-08-25T07:16:44;26.87;;;7.37;;
7021;SDS011;3552;42.664;23.406;2022-08-25T07:19:12;26.07;;;7.60;;
7021;SDS011;3552;42.664;23.406;2022-08-25T07:21:44;15.93;;;7.17;;
7021;SDS011;3552;42.664;23.406;2022-08-25T07:24:14;22.10;;;7.70;;
7021;SDS011;3552;42.664;23.406;2022-08-25T07:26:41;23.90;;;7.07;;
7021;SDS011;3552;42.664;23.406;2022-08-25T07:29:11;19.57;;;7.13;;
7021;SDS011;3552;42.664;23.406;2022-08-25T07:31:44;25.67;;;8.00;;
7021;SDS011;3552;42.664;23.406;2022-08-25T07:34:11;30.00;;;8.83;;
7021;SDS011;3552;42.664;23.406;2022-08-25T07:36:57;22.87;;;7.73;;
7021;SDS011;3552;42.664;23.406;2022-08-25T07:39:24;20.60;;;7.30;;
7021;SDS011;3552;42.664;23.406;2022-08-25T07:41:52;19.87;;;7.20;;
7021;SDS011;3552;42.664;23.406;2022-08-25T07:44:19;18.67;;;7.40;;
7021;SDS011;3552;42.664;23.406;2022-08-25T07:46:49;32.80;;;8.40;;
7021;SDS011;3552;42.664;23.406;2022-08-25T07:49:16;25.33;;;7.80;;
7021;SDS011;3552;42.664;23.406;2022-08-25T07:51:44;24.77;;;8.63;;
7021;SDS011;3552;42.664;23.406;2022-08-25T07:54:12;21.57;;;8.27;;
7021;SDS011;3552;42.664;23.406;2022-08-25T07:56:39;26.63;;;8.03;;
7021;SDS011;3552;42.664;23.406;2022-08-25T07:59:07;28.93;;;8.10;;
7021;SDS011;3552;42.664;23.406;2022-08-25T08:01:35;20.63;;;7.97;;
7021;SDS011;3552;42.664;23.406;2022-08-25T08:04:04;27.07;;;7.63;;
7021;SDS011;3552;42.664;23.406;2022-08-25T08:06:31;25.60;;;7.60;;
7021;SDS011;3552;42.664;23.406;2022-08-25T08:08:58;27.93;;;8.33;;
7021;SDS011;3552;42.664;23.406;2022-08-25T08:11:28;21.73;;;7.80;;
7021;SDS011;3552;42.664;23.406;2022-08-25T08:13:57;27.00;;;8.57;;
7021;SDS011;3552;42.664;23.406;2022-08-25T08:16:25;18.97;;;7.40;;
7021;SDS011;3552;42.664;23.406;2022-08-25T08:18:54;29.13;;;6.97;;
7021;SDS011;3552;42.664;23.406;2022-08-25T08:21:24;25.57;;;6.90;;
7021;SDS011;3552;42.664;23.406;2022-08-25T08:23:54;38.63;;;7.37;;
7021;SDS011;3552;42.664;23.406;2022-08-25T08:26:23;30.67;;;6.77;;
7021;SDS011;3552;42.664;23.406;2022-08-25T08:28:52;33.83;;;7.33;;
7021;SDS011;3552;42.664;23.406;2022-08-25T08:31:19;29.37;;;7.00;;
7021;SDS011;3552;42.664;23.406;2022-08-25T08:33:51;36.90;;;7.37;;
7021;SDS011;3552;42.664;23.406;2022-08-25T08:36:21;31.17;;;6.53;;
7021;SDS011;3552;42.664;23.406;2022-08-25T08:38:52;30.33;;;7.87;;
7021;SDS011;3552;42.664;23.406;2022-08-25T08:44:27;41.40;;;7.10;;
7021;SDS011;3552;42.664;23.406;2022-08-25T08:47:03;22.80;;;5.80;;
7021;SDS011;3552;42.664;23.406;2022-08-25T08:49:34;25.13;;;6.40;;
7021;SDS011;3552;42.664;23.406;2022-08-25T08:52:08;25.27;;;5.93;;
7021;SDS011;3552;42.664;23.406;2022-08-25T08:54:37;37.40;;;6.90;;
7021;SDS011;3552;42.664;23.406;2022-08-25T08:57:08;27.80;;;5.57;;
7021;SDS011;3552;42.664;23.406;2022-08-25T08:59:44;35.90;;;6.30;;
7021;SDS011;3552;42.664;23.406;2022-08-25T09:02:17;27.90;;;5.73;;
7021;SDS011;3552;42.664;23.406;2022-08-25T09:04:54;28.03;;;5.97;;
7021;SDS011;3552;42.664;23.406;2022-08-25T09:07:28;30.73;;;7.00;;
7021;SDS011;3552;42.664;23.406;2022-08-25T09:09:58;22.67;;;7.10;;
7021;SDS011;3552;42.664;23.406;2022-08-25T09:12:29;30.57;;;6.30;;
7021;SDS011;3552;42.664;23.406;2022-08-25T09:15:09;27.70;;;6.57;;
7021;SDS011;3552;42.664;23.406;2022-08-25T09:17:49;22.50;;;5.50;;
7021;SDS011;3552;42.664;23.406;2022-08-25T09:20:37;34.50;;;6.33;;
7021;SDS011;3552;42.664;23.406;2022-08-25T09:23:20;29.33;;;6.00;;
7021;SDS011;3552;42.664;23.406;2022-08-25T09:25:59;31.10;;;6.27;;
7021;SDS011;3552;42.664;23.406;2022-08-25T09:28:36;23.20;;;5.37;;
7021;SDS011;3552;42.664;23.406;2022-08-25T09:31:11;21.53;;;4.87;;
7021;SDS011;3552;42.664;23.406;2022-08-25T09:33:44;19.87;;;5.00;;
7021;SDS011;3552;42.664;23.406;2022-08-25T09:36:11;39.33;;;6.77;;
7021;SDS011;3552;42.664;23.406;2022-08-25T09:38:41;31.10;;;5.03;;
7021;SDS011;3552;42.664;23.406;2022-08-25T09:41:08;26.10;;;5.23;;
7021;SDS011;3552;42.664;23.406;2022-08-25T09:43:37;23.30;;;5.27;;
7021;SDS011;3552;42.664;23.406;2022-08-25T09:46:11;30.47;;;4.77;;
7021;SDS011;3552;42.664;23.406;2022-08-25T09:48:42;25.20;;;4.40;;
7021;SDS011;3552;42.664;23.406;2022-08-25T09:51:18;27.63;;;5.23;;
7021;SDS011;3552;42.664;23.406;2022-08-25T09:53:53;22.80;;;4.80;;
7021;SDS011;3552;42.664;23.406;2022-08-25T09:56:22;30.80;;;5.00;;
7021;SDS011;3552;42.664;23.406;2022-08-25T09:58:51;30.97;;;5.37;;
7021;SDS011;3552;42.664;23.406;2022-08-25T10:01:21;32.50;;;5.53;;
7021;SDS011;3552;42.664;23.406;2022-08-25T10:04:05;25.13;;;5.20;;
7021;SDS011;3552;42.664;23.406;2022-08-25T10:06:40;35.80;;;5.27;;
7021;SDS011;3552;42.664;23.406;2022-08-25T10:09:22;25.27;;;5.23;;
7021;SDS011;3552;42.664;23.406;2022-08-25T10:11:57;33.27;;;5.90;;
7021;SDS011;3552;42.664;23.406;2022-08-25T10:14:31;23.70;;;5.53;;
7021;SDS011;3552;42.664;23.406;2022-08-25T10:17:14;33.67;;;5.73;;
7021;SDS011;3552;42.664;23.406;2022-08-25T10:19:48;33.80;;;5.03;;
7021;SDS011;3552;42.664;23.406;2022-08-25T10:22:20;19.80;;;4.43;;
7021;SDS011;3552;42.664;23.406;2022-08-25T10:24:58;24.67;;;4.67;;
7021;SDS011;3552;42.664;23.406;2022-08-25T10:27:29;34.93;;;5.50;;
7021;SDS011;3552;42.664;23.406;2022-08-25T10:30:04;27.90;;;4.83;;
7021;SDS011;3552;42.664;23.406;2022-08-25T10:32:43;23.77;;;4.80;;
7021;SDS011;3552;42.664;23.406;2022-08-25T10:35:29;30.13;;;5.00;;
7021;SDS011;3552;42.664;23.406;2022-08-25T10:38:06;34.77;;;4.70;;
7021;SDS011;3552;42.664;23.406;2022-08-25T10:40:54;33.83;;;4.23;;
7021;SDS011;3552;42.664;23.406;2022-08-25T10:43:30;22.90;;;4.00;;
7021;SDS011;3552;42.664;23.406;2022-08-25T10:46:03;30.03;;;4.60;;
7021;SDS011;3552;42.664;23.406;2022-08-25T10:51:29;23.13;;;3.97;;
7021;SDS011;3552;42.664;23.406;2022-08-25T10:54:08;27.37;;;4.73;;
7021;SDS011;3552;42.664;23.406;2022-08-25T10:56:51;20.40;;;4.90;;
7021;SDS011;3552;42.664;23.406;2022-08-25T10:59:35;27.23;;;4.27;;
7021;SDS011;3552;42.664;23.406;2022-08-25T11:05:15;32.07;;;4.37;;
7021;SDS011;3552;42.664;23.406;2022-08-25T11:07:53;26.23;;;4.23;;
7021;SDS011;3552;42.664;23.406;2022-08-25T11:10:33;28.53;;;4.87;;
7021;SDS011;3552;42.664;23.406;2022-08-25T11:13:14;23.03;;;4.37;;
7021;SDS011;3552;42.664;23.406;2022-08-25T11:15:53;31.90;;;4.47;;
7021;SDS011;3552;42.664;23.406;2022-08-25T11:18:26;26.90;;;4.37;;
7021;SDS011;3552;42.664;23.406;2022-08-25T11:20:58;24.37;;;5.37;;
7021;SDS011;3552;42.664;23.406;2022-08-25T11:23:32;25.87;;;4.67;;
7021;SDS011;3552;42.664;23.406;2022-08-25T11:26:05;31.63;;;4.63;;
7021;SDS011;3552;42.664;23.406;2022-08-25T11:28:46;27.60;;;5.13;;
7021;SDS011;3552;42.664;23.406;2022-08-25T11:31:19;24.20;;;4.77;;
7021;SDS011;3552;42.664;23.406;2022-08-25T11:33:47;23.20;;;5.20;;
7021;SDS011;3552;42.664;23.406;2022-08-25T11:36:18;29.23;;;4.93;;
7021;SDS011;3552;42.664;23.406;2022-08-25T11:38:54;27.37;;;4.97;;
7021;SDS011;3552;42.664;23.406;2022-08-25T11:41:40;23.27;;;5.00;;
7021;SDS011;3552;42.664;23.406;2022-08-25T11:44:29;29.13;;;4.53;;
7021;SDS011;3552;42.664;23.406;2022-08-25T11:50:28;16.83;;;4.53;;
7021;SDS011;3552;42.664;23.406;2022-08-25T11:52:59;22.13;;;4.70;;
7021;SDS011;3552;42.664;23.406;2022-08-25T11:55:49;23.97;;;4.87;;
7021;SDS011;3552;42.664;23.406;2022-08-25T12:04:29;18.87;;;4.63;;
7021;SDS011;3552;42.664;23.406;2022-08-25T12:12:56;22.63;;;4.40;;
7021;SDS011;3552;42.664;23.406;2022-08-25T12:15:52;22.60;;;4.47;;
7021;SDS011;3552;42.664;23.406;2022-08-25T12:18:37;15.10;;;3.57;;
7021;SDS011;3552;42.664;23.406;2022-08-25T12:24:04;19.77;;;4.87;;
7021;SDS011;3552;42.664;23.406;2022-08-25T12:26:42;12.10;;;3.77;;
7021;SDS011;3552;42.664;23.406;2022-08-25T12:29:19;13.63;;;3.97;;
7021;SDS011;3552;42.664;23.406;2022-08-25T12:35:02;21.50;;;4.17;;
7021;SDS011;3552;42.664;23.406;2022-08-25T12:40:52;23.90;;;4.43;;
7021;SDS011;3552;42.664;23.406;2022-08-25T12:43:24;13.90;;;4.47;;
7021;SDS011;3552;42.664;23.406;2022-08-25T12:45:54;25.30;;;4.77;;
7021;SDS011;3552;42.664;23.406;2022-08-25T12:49:28;18.30;;;3.90;;
7021;SDS011;3552;42.664;23.406;2022-08-25T12:51:58;16.60;;;4.40;;
7021;SDS011;3552;42.664;23.406;2022-08-25T12:54:41;15.67;;;4.00;;
7021;SDS011;3552;42.664;23.406;2022-08-25T12:57:22;25.53;;;4.33;;
7021;SDS011;3552;42.664;23.406;2022-08-25T12:59:58;25.23;;;4.50;;
7021;SDS011;3552;42.664;23.406;2022-08-25T13:02:50;17.27;;;3.90;;
7021;SDS011;3552;42.664;23.406;2022-08-25T13:09:00;25.07;;;4.40;;
7021;SDS011;3552;42.664;23.406;2022-08-25T13:14:37;17.47;;;4.23;;
7021;SDS011;3552;42.664;23.406;2022-08-25T13:17:08;15.67;;;3.80;;
7021;SDS011;3552;42.664;23.406;2022-08-25T13:19:36;21.63;;;3.97;;
7021;SDS011;3552;42.664;23.406;2022-08-25T13:22:09;24.10;;;4.67;;
7021;SDS011;3552;42.664;23.406;2022-08-25T13:24:41;21.30;;;4.37;;
7021;SDS011;3552;42.664;23.406;2022-08-25T13:27:17;21.23;;;4.33;;
7021;SDS011;3552;42.664;23.406;2022-08-25T13:29:52;28.23;;;4.53;;
7021;SDS011;3552;42.664;23.406;2022-08-25T13:32:24;20.40;;;4.30;;
7021;SDS011;3552;42.664;23.406;2022-08-25T13:35:07;22.70;;;4.73;;
7021;SDS011;3552;42.664;23.406;2022-08-25T13:37:39;30.20;;;4.83;;
7021;SDS011;3552;42.664;23.406;2022-08-25T13:40:08;19.73;;;4.07;;
7021;SDS011;3552;42.664;23.406;2022-08-25T13:42:37;18.70;;;4.10;;
7021;SDS011;3552;42.664;23.406;2022-08-25T13:45:08;23.00;;;4.17;;
7021;SDS011;3552;42.664;23.406;2022-08-25T13:47:41;19.10;;;4.13;;
7021;SDS011;3552;42.664;23.406;2022-08-25T13:50:16;22.83;;;4.67;;
7021;SDS011;3552;42.664;23.406;2022-08-25T13:52:48;16.50;;;3.87;;
7021;SDS011;3552;42.664;23.406;2022-08-25T13:55:19;21.33;;;4.30;;
7021;SDS011;3552;42.664;23.406;2022-08-25T13:57:50;28.57;;;4.53;;
7021;SDS011;3552;42.664;23.406;2022-08-25T14:00:27;24.70;;;4.30;;
7021;SDS011;3552;42.664;23.406;2022-08-25T14:02:59;16.93;;;4.27;;
7021;SDS011;3552;42.664;23.406;2022-08-25T14:05:34;32.30;;;4.83;;
7021;SDS011;3552;42.664;23.406;2022-08-25T14:08:04;19.17;;;4.07;;
7021;SDS011;3552;42.664;23.406;2022-08-25T14:10:35;20.97;;;4.30;;
7021;SDS011;3552;42.664;23.406;2022-08-25T14:13:08;25.50;;;4.10;;
7021;SDS011;3552;42.664;23.406;2022-08-25T14:15:43;20.93;;;3.87;;
7021;SDS011;3552;42.664;23.406;2022-08-25T14:18:13;22.40;;;3.97;;
7021;SDS011;3552;42.664;23.406;2022-08-25T14:20:46;17.90;;;3.57;;
7021;SDS011;3552;42.664;23.406;2022-08-25T14:23:15;31.33;;;4.57;;
7021;SDS011;3552;42.664;23.406;2022-08-25T14:25:45;25.27;;;4.20;;
7021;SDS011;3552;42.664;23.406;2022-08-25T14:28:16;21.30;;;3.80;;
7021;SDS011;3552;42.664;23.406;2022-08-25T14:30:47;17.27;;;4.13;;
7021;SDS011;3552;42.664;23.406;2022-08-25T14:33:17;18.97;;;3.67;;
7021;SDS011;3552;42.664;23.406;2022-08-25T14:35:50;25.93;;;4.57;;
7021;SDS011;3552;42.664;23.406;2022-08-25T14:38:18;17.60;;;4.30;;
7021;SDS011;3552;42.664;23.406;2022-08-25T14:40:46;24.20;;;4.07;;
7021;SDS011;3552;42.664;23.406;2022-08-25T14:43:14;24.10;;;4.17;;
7021;SDS011;3552;42.664;23.406;2022-08-25T14:45:43;24.57;;;3.90;;
7021;SDS011;3552;42.664;23.406;2022-08-25T14:48:15;22.53;;;4.40;;
7021;SDS011;3552;42.664;23.406;2022-08-25T14:50:48;26.47;;;4.10;;
7021;SDS011;3552;42.664;23.406;2022-08-25T14:53:16;19.23;;;4.27;;
7021;SDS011;3552;42.664;23.406;2022-08-25T14:55:43;23.43;;;4.67;;
7021;SDS011;3552;42.664;23.406;2022-08-25T14:58:11;23.93;;;4.07;;
7021;SDS011;3552;42.664;23.406;2022-08-25T15:00:40;15.13;;;4.67;;
7021;SDS011;3552;42.664;23.406;2022-08-25T15:03:12;19.40;;;4.17;;
7021;SDS011;3552;42.664;23.406;2022-08-25T15:05:43;24.87;;;4.03;;
7021;SDS011;3552;42.664;23.406;2022-08-25T15:08:12;24.43;;;4.27;;
7021;SDS011;3552;42.664;23.406;2022-08-25T15:10:56;24.00;;;4.43;;
7021;SDS011;3552;42.664;23.406;2022-08-25T15:13:23;19.37;;;3.90;;
7021;SDS011;3552;42.664;23.406;2022-08-25T15:15:51;24.10;;;4.53;;
7021;SDS011;3552;42.664;23.406;2022-08-25T15:18:21;23.43;;;4.33;;
7021;SDS011;3552;42.664;23.406;2022-08-25T15:20:49;28.67;;;4.50;;
7021;SDS011;3552;42.664;23.406;2022-08-25T15:23:20;25.17;;;4.43;;
7021;SDS011;3552;42.664;23.406;2022-08-25T15:25:47;19.63;;;4.57;;
7021;SDS011;3552;42.664;23.406;2022-08-25T15:28:16;25.70;;;4.77;;
7021;SDS011;3552;42.664;23.406;2022-08-25T15:30:46;16.47;;;3.97;;
7021;SDS011;3552;42.664;23.406;2022-08-25T15:33:13;17.13;;;3.63;;
7021;SDS011;3552;42.664;23.406;2022-08-25T15:35:43;21.13;;;4.43;;
7021;SDS011;3552;42.664;23.406;2022-08-25T15:38:10;22.73;;;4.40;;
7021;SDS011;3552;42.664;23.406;2022-08-25T15:40:40;21.40;;;4.53;;
7021;SDS011;3552;42.664;23.406;2022-08-25T15:43:09;18.07;;;4.40;;
7021;SDS011;3552;42.664;23.406;2022-08-25T15:45:36;21.87;;;4.80;;
7021;SDS011;3552;42.664;23.406;2022-08-25T15:48:04;20.30;;;4.67;;
7021;SDS011;3552;42.664;23.406;2022-08-25T15:50:35;24.07;;;4.40;;
7021;SDS011;3552;42.664;23.406;2022-08-25T15:53:10;17.37;;;4.13;;